createdAt,value
2023-07-19T00:01:21.992Z,967.77
2023-07-19T00:02:21.764Z,967.73
2023-07-19T00:04:17.742Z,967.59
2023-07-19T00:05:26.989Z,967.53
2023-07-19T00:07:11.474Z,967.48
2023-07-19T00:09:53.425Z,967.54
2023-07-19T00:11:01.537Z,967.53
2023-07-19T00:14:28.444Z,967.53
2023-07-19T00:15:36.541Z,967.51
2023-07-19T00:17:23.108Z,967.52
2023-07-19T00:18:23.060Z,967.49
2023-07-19T00:20:26.180Z,967.41
2023-07-19T00:21:16.916Z,967.42
2023-07-19T00:22:16.886Z,967.40
2023-07-19T00:23:16.896Z,967.43
2023-07-19T00:24:24.013Z,967.38
2023-07-19T00:26:50.019Z,967.39
2023-07-19T00:27:59.828Z,967.39
2023-07-19T00:29:53.918Z,967.40
2023-07-19T00:30:45.705Z,967.38
2023-07-19T00:32:41.616Z,967.42
2023-07-19T00:33:48.951Z,967.39
2023-07-19T00:35:44.498Z,967.39
2023-07-19T00:36:35.418Z,967.42
2023-07-19T00:39:20.292Z,967.39
2023-07-19T00:40:20.240Z,967.32
2023-07-19T00:42:53.014Z,967.33
2023-07-19T00:44:03.190Z,967.37
2023-07-19T00:47:04.486Z,967.17
2023-07-19T00:48:04.323Z,967.16
2023-07-19T00:49:04.273Z,967.21
2023-07-19T00:50:04.236Z,967.21
2023-07-19T00:51:04.209Z,967.22
2023-07-19T00:52:13.195Z,967.29
2023-07-19T00:55:41.061Z,967.30
2023-07-19T00:56:49.194Z,967.32
2023-07-19T00:59:26.763Z,967.35
2023-07-19T01:00:26.733Z,967.38
2023-07-19T01:02:21.525Z,967.40
2023-07-19T01:03:21.464Z,967.41
2023-07-19T01:05:27.052Z,967.43
2023-07-19T01:06:26.990Z,967.38
2023-07-19T01:08:54.964Z,967.34
2023-07-19T01:09:46.548Z,967.32
2023-07-19T01:12:28.762Z,967.31
2023-07-19T01:13:36.878Z,967.29
2023-07-19T01:15:21.601Z,967.32
2023-07-19T01:16:21.623Z,967.31
2023-07-19T01:20:42.101Z,967.32
2023-07-19T01:23:15.703Z,967.32
2023-07-19T01:26:09.790Z,967.34
2023-07-19T01:27:22.269Z,967.33
2023-07-19T01:29:16.521Z,967.31
2023-07-19T01:30:16.483Z,967.32
2023-07-19T01:32:00.569Z,967.32
2023-07-19T01:33:14.452Z,967.27
2023-07-19T01:39:08.415Z,967.25
2023-07-19T01:40:00.342Z,967.23
2023-07-19T01:49:41.405Z,967.20
2023-07-19T01:50:38.460Z,967.17
2023-07-19T01:52:35.952Z,967.16
2023-07-19T01:53:26.865Z,967.22
2023-07-19T01:55:35.334Z,967.16
2023-07-19T01:56:35.310Z,967.11
2023-07-19T01:58:32.250Z,967.06
2023-07-19T01:59:32.199Z,967.08
2023-07-19T02:01:26.355Z,967.06
2023-07-19T02:02:26.349Z,967.09
2023-07-19T02:04:19.972Z,967.03
2023-07-19T02:05:27.068Z,967.07
2023-07-19T02:07:12.807Z,967.03
2023-07-19T02:08:12.749Z,967.01
2023-07-19T02:10:44.894Z,967.04
2023-07-19T02:11:52.076Z,967.02
2023-07-19T02:14:13.294Z,966.99
2023-07-19T02:15:15.758Z,966.95
2023-07-19T02:17:59.575Z,966.93
2023-07-19T02:19:01.238Z,966.94
2023-07-19T02:21:06.876Z,966.91
2023-07-19T02:21:58.814Z,966.94
2023-07-19T02:23:53.713Z,966.93
2023-07-19T02:24:53.684Z,966.97
2023-07-19T02:27:15.797Z,966.95
2023-07-19T02:29:57.150Z,967.00
2023-07-19T02:30:57.150Z,966.99
2023-07-19T02:32:05.244Z,967.00
2023-07-19T02:33:50.948Z,966.97
2023-07-19T02:34:59.106Z,967.00
2023-07-19T02:37:03.856Z,966.98
2023-07-19T02:37:56.661Z,966.98
2023-07-19T02:39:52.248Z,966.93
2023-07-19T02:40:52.192Z,966.84
2023-07-19T02:42:45.931Z,966.90
2023-07-19T02:43:54.056Z,966.87
2023-07-19T02:45:41.443Z,966.89
2023-07-19T02:46:41.487Z,966.87
2023-07-19T02:48:47.911Z,966.86
2023-07-19T02:49:47.853Z,966.85
2023-07-19T02:51:54.303Z,966.84
2023-07-19T02:54:36.694Z,966.84
2023-07-19T02:55:45.824Z,966.84
2023-07-19T02:59:31.654Z,966.81
2023-07-19T03:00:22.587Z,966.84
2023-07-19T03:02:16.522Z,966.90
2023-07-19T03:03:24.583Z,966.87
2023-07-19T03:05:12.042Z,966.87
2023-07-19T03:06:11.980Z,966.90
2023-07-19T03:07:11.944Z,966.89
2023-07-19T03:08:19.923Z,966.90
2023-07-19T03:10:32.358Z,966.91
2023-07-19T03:11:32.301Z,966.90
2023-07-19T03:12:32.274Z,966.94
2023-07-19T03:13:39.604Z,966.92
2023-07-19T03:15:25.979Z,966.87
2023-07-19T03:16:25.967Z,966.94
2023-07-19T03:18:45.350Z,966.94
2023-07-19T03:19:45.279Z,966.88
2023-07-19T03:21:38.999Z,966.89
2023-07-19T03:22:39.042Z,966.91
2023-07-19T03:24:32.866Z,966.92
2023-07-19T03:25:39.985Z,966.90
2023-07-19T03:27:27.421Z,966.88
2023-07-19T03:28:27.372Z,966.90
2023-07-19T03:29:27.344Z,966.90
2023-07-19T03:30:36.400Z,966.92
2023-07-19T03:35:22.444Z,966.96
2023-07-19T03:38:04.713Z,966.98
2023-07-19T03:39:04.549Z,966.97
2023-07-19T03:42:07.253Z,967.03
2023-07-19T03:43:00.081Z,967.07
2023-07-19T03:44:53.981Z,967.10
2023-07-19T03:47:49.147Z,967.14
2023-07-19T03:48:56.214Z,967.18
2023-07-19T03:50:41.739Z,967.15
2023-07-19T03:53:31.285Z,967.14
2023-07-19T03:54:23.030Z,967.16
2023-07-19T03:55:23.011Z,967.14
2023-07-19T03:56:31.158Z,967.16
2023-07-19T03:58:29.637Z,967.13
2023-07-19T03:59:29.585Z,967.17
2023-07-19T04:03:42.739Z,967.18
2023-07-19T04:04:42.703Z,967.18
2023-07-19T04:07:12.145Z,967.16
2023-07-19T04:08:12.947Z,967.16
2023-07-19T04:09:58.662Z,967.11
2023-07-19T04:10:58.612Z,967.13
2023-07-19T04:14:09.890Z,967.07
2023-07-19T04:15:19.880Z,967.07
2023-07-19T04:18:08.125Z,967.08
2023-07-19T04:19:16.231Z,967.05
2023-07-19T04:21:29.937Z,967.08
2023-07-19T04:22:38.325Z,967.07
2023-07-19T04:26:03.113Z,967.03
2023-07-19T04:26:54.907Z,967.07
2023-07-19T04:28:50.474Z,967.10
2023-07-19T04:29:58.000Z,967.03
2023-07-19T04:31:44.362Z,967.04
2023-07-19T04:32:53.460Z,967.02
2023-07-19T04:34:38.220Z,967.04
2023-07-19T04:37:21.215Z,966.97
2023-07-19T04:38:29.196Z,966.99
2023-07-19T04:40:17.959Z,966.98
2023-07-19T04:41:18.035Z,967.02
2023-07-19T04:43:11.780Z,966.99
2023-07-19T04:47:10.505Z,966.90
2023-07-19T04:48:21.335Z,966.87
2023-07-19T04:50:13.354Z,966.88
2023-07-19T04:51:13.304Z,966.89
2023-07-19T04:56:53.087Z,966.93
2023-07-19T04:57:53.047Z,966.99
2023-07-19T04:58:53.019Z,966.94
2023-07-19T05:06:12.777Z,966.96
2023-07-19T05:11:55.747Z,966.87
2023-07-19T05:19:12.331Z,966.87
2023-07-19T05:20:02.119Z,966.90
2023-07-19T05:21:56.813Z,966.91
2023-07-19T05:28:30.074Z,966.87
2023-07-19T05:32:43.276Z,966.85
2023-07-19T05:33:43.205Z,966.82
2023-07-19T05:35:36.260Z,966.78
2023-07-19T05:36:36.236Z,966.78
2023-07-19T05:37:36.208Z,966.75
2023-07-19T05:38:36.192Z,966.76
2023-07-19T05:39:36.178Z,966.78
2023-07-19T05:40:36.140Z,966.78
2023-07-19T05:41:36.126Z,966.73
2023-07-19T05:42:36.100Z,966.77
2023-07-19T05:43:36.082Z,966.78
2023-07-19T05:44:36.051Z,966.77
2023-07-19T05:45:36.143Z,966.74
2023-07-19T05:46:36.006Z,966.82
2023-07-19T05:47:36.006Z,966.79
2023-07-19T05:48:35.965Z,966.75
2023-07-19T05:49:35.944Z,966.75
2023-07-19T05:50:43.085Z,966.74
2023-07-19T05:52:30.662Z,966.74
2023-07-19T05:53:30.635Z,966.73
2023-07-19T05:55:23.483Z,966.73
2023-07-19T05:56:23.445Z,966.71
2023-07-19T05:58:16.331Z,966.72
2023-07-19T05:59:16.281Z,966.74
2023-07-19T06:01:10.285Z,966.75
2023-07-19T06:02:10.326Z,966.73
2023-07-19T06:04:04.119Z,966.78
2023-07-19T06:05:04.012Z,966.73
2023-07-19T06:06:57.920Z,966.77
2023-07-19T06:08:01.892Z,966.76
2023-07-19T06:09:53.554Z,966.79
2023-07-19T06:11:00.886Z,966.80
2023-07-19T06:12:47.490Z,966.81
2023-07-19T06:13:47.441Z,966.84
2023-07-19T06:15:54.964Z,966.76
2023-07-19T06:16:54.890Z,966.78
2023-07-19T06:18:50.468Z,966.77
2023-07-19T06:19:50.445Z,966.80
2023-07-19T06:21:45.198Z,966.79
2023-07-19T06:22:45.214Z,966.75
2023-07-19T06:24:39.051Z,966.78
2023-07-19T06:25:39.025Z,966.81
2023-07-19T06:26:38.995Z,966.80
2023-07-19T06:27:38.968Z,966.78
2023-07-19T06:28:38.962Z,966.78
2023-07-19T06:29:38.928Z,966.78
2023-07-19T06:30:38.911Z,966.76
2023-07-19T06:31:38.953Z,966.75
2023-07-19T06:32:47.274Z,966.75
2023-07-19T06:34:33.635Z,966.77
2023-07-19T06:35:33.584Z,966.73
2023-07-19T06:39:21.356Z,966.75
2023-07-19T06:40:21.340Z,966.77
2023-07-19T08:09:47.297Z,966.63
2023-07-19T08:20:56.427Z,966.56
2023-07-19T08:25:59.043Z,966.54
2023-07-19T08:37:39.579Z,966.55
2023-07-19T08:38:50.588Z,966.53
2023-07-19T08:49:06.702Z,966.53
2023-07-19T08:50:06.626Z,966.55
2023-07-19T09:45:25.473Z,966.50
2023-07-19T09:48:34.182Z,966.41
2023-07-19T12:12:28.647Z,965.79
2023-07-19T12:13:28.448Z,965.80
2023-07-19T12:16:14.440Z,965.78
2023-07-19T12:17:14.420Z,965.73
2023-07-19T12:19:09.296Z,965.72
2023-07-19T12:20:09.296Z,965.81
2023-07-19T12:21:09.283Z,965.82
2023-07-19T12:23:09.289Z,965.79
2023-07-19T12:29:02.593Z,965.73
2023-07-19T12:32:23.895Z,965.61
2023-07-19T12:36:59.404Z,965.64
2023-07-19T12:40:07.942Z,965.67
2023-07-19T12:43:14.566Z,965.70
2023-07-19T12:44:14.505Z,965.63
2023-07-19T12:46:17.997Z,965.58
2023-07-19T12:47:09.824Z,965.57
2023-07-19T12:48:09.865Z,965.61
2023-07-19T12:49:19.820Z,965.62
2023-07-19T12:54:21.346Z,965.56
2023-07-19T12:55:21.261Z,965.51
2023-07-19T12:57:27.289Z,965.57
2023-07-19T12:58:18.023Z,965.54
2023-07-19T12:59:18.076Z,965.52
2023-07-19T13:00:17.981Z,965.47
2023-07-19T13:01:18.098Z,965.43
2023-07-19T13:02:18.019Z,965.43
2023-07-19T13:03:17.995Z,965.39
2023-07-19T13:04:17.911Z,965.41
2023-07-19T13:05:17.897Z,965.41
2023-07-19T13:06:17.932Z,965.34
2023-07-19T13:07:17.872Z,965.38
2023-07-19T13:08:17.861Z,965.35
2023-07-19T13:09:17.837Z,965.29
2023-07-19T13:10:17.823Z,965.31
2023-07-19T13:11:17.805Z,965.28
2023-07-19T13:12:17.786Z,965.27
2023-07-19T13:13:17.786Z,965.29
2023-07-19T13:17:20.200Z,965.27
2023-07-19T13:20:34.661Z,965.31
2023-07-19T13:26:52.016Z,965.29
2023-07-19T13:27:51.950Z,965.21
2023-07-19T13:30:13.368Z,965.29
2023-07-19T13:31:13.061Z,965.32
2023-07-19T13:33:06.997Z,965.28
2023-07-19T13:34:07.882Z,965.27
2023-07-19T13:35:59.796Z,965.16
2023-07-19T13:39:07.937Z,965.20
2023-07-19T13:40:07.951Z,965.15
2023-07-19T13:42:42.397Z,965.10
2023-07-19T13:43:42.246Z,965.07
2023-07-19T13:44:42.233Z,965.08
2023-07-19T13:45:42.221Z,965.17
2023-07-19T13:46:42.240Z,965.22
2023-07-19T13:47:43.714Z,965.14
2023-07-19T13:48:42.174Z,965.13
2023-07-19T13:49:42.148Z,965.13
2023-07-19T13:50:42.135Z,965.09
2023-07-19T13:51:42.124Z,965.05
2023-07-19T13:52:42.103Z,965.08
2023-07-19T13:53:42.083Z,965.04
2023-07-19T13:54:42.828Z,965.04
2023-07-19T13:55:42.056Z,964.99
2023-07-19T13:58:36.184Z,965.02
2023-07-19T13:59:44.314Z,965.00
2023-07-19T14:01:30.179Z,965.01
2023-07-19T14:02:30.216Z,964.99
2023-07-19T14:04:23.916Z,964.92
2023-07-19T14:05:23.874Z,964.93
2023-07-19T14:08:10.156Z,964.91
2023-07-19T14:09:09.767Z,964.89
2023-07-19T14:11:06.501Z,964.84
2023-07-19T14:12:04.671Z,964.82
2023-07-19T14:14:00.246Z,964.83
2023-07-19T14:15:00.223Z,964.87
2023-07-19T14:17:53.993Z,964.88
2023-07-19T14:18:53.856Z,964.90
2023-07-19T14:21:09.734Z,964.88
2023-07-19T14:22:01.500Z,964.82
2023-07-19T14:23:56.230Z,964.84
2023-07-19T14:24:56.213Z,964.80
2023-07-19T14:26:51.021Z,964.77
2023-07-19T14:27:50.974Z,964.78
2023-07-19T14:30:33.200Z,964.79
2023-07-19T14:31:33.241Z,964.81
2023-07-19T14:33:28.167Z,964.83
2023-07-19T14:34:28.063Z,964.81
2023-07-19T14:38:04.012Z,964.91
2023-07-19T14:39:03.984Z,964.94
2023-07-19T14:41:49.083Z,965.00
2023-07-19T14:42:49.066Z,965.05
2023-07-19T14:47:30.004Z,965.04
2023-07-19T14:50:42.997Z,964.95
2023-07-19T15:03:31.439Z,965.16
2023-07-19T15:04:31.253Z,965.12
2023-07-19T15:05:31.218Z,965.18
2023-07-19T15:07:31.469Z,965.13
2023-07-19T15:08:31.145Z,965.13
2023-07-19T15:12:05.740Z,965.06
2023-07-19T15:14:47.125Z,964.99
2023-07-19T15:20:29.813Z,965.06
2023-07-19T15:21:27.563Z,965.08
2023-07-19T15:23:14.347Z,965.11
2023-07-19T15:24:24.476Z,965.08
2023-07-19T15:32:51.541Z,965.24
2023-07-19T15:37:13.920Z,965.35
2023-07-19T15:38:03.641Z,965.34
2023-07-19T15:40:37.392Z,965.39
2023-07-19T15:41:46.549Z,965.38
2023-07-19T15:58:59.431Z,965.91
2023-07-19T15:59:59.622Z,965.95
2023-07-19T16:06:22.788Z,966.19
2023-07-19T16:07:22.762Z,966.15
2023-07-19T16:09:15.626Z,966.17
2023-07-19T16:10:15.594Z,966.21
2023-07-19T16:12:08.481Z,966.15
2023-07-19T16:13:08.438Z,966.10
2023-07-19T16:14:08.418Z,966.11
2023-07-19T16:15:08.404Z,966.08
2023-07-19T16:16:08.397Z,966.08
2023-07-19T16:17:08.362Z,966.07
2023-07-19T16:18:08.370Z,966.06
2023-07-19T16:19:08.314Z,966.02
2023-07-19T16:20:08.295Z,966.00
2023-07-19T16:21:08.272Z,965.98
2023-07-19T16:22:08.260Z,965.97
2023-07-19T16:23:08.391Z,965.94
2023-07-19T16:24:08.207Z,965.88
2023-07-19T16:25:08.205Z,965.87
2023-07-19T16:26:08.177Z,965.84
2023-07-19T16:27:08.150Z,965.85
2023-07-19T16:28:08.139Z,965.74
2023-07-19T16:29:08.108Z,965.68
2023-07-19T16:30:08.086Z,965.69
2023-07-19T16:31:08.140Z,965.65
2023-07-19T16:32:08.044Z,965.67
2023-07-19T16:33:08.023Z,965.68
2023-07-19T16:34:08.964Z,965.65
2023-07-19T16:35:07.983Z,965.64
2023-07-19T16:36:07.969Z,965.61
2023-07-19T16:37:07.939Z,965.57
2023-07-19T16:38:07.918Z,965.54
2023-07-19T16:39:07.906Z,965.49
2023-07-19T16:40:07.885Z,965.49
2023-07-19T16:41:07.857Z,965.55
2023-07-19T16:42:07.843Z,965.53
2023-07-19T16:43:07.817Z,965.51
2023-07-19T16:44:07.823Z,965.45
2023-07-19T16:45:07.769Z,965.38
2023-07-19T16:46:07.747Z,965.44
2023-07-19T16:47:07.748Z,965.46
2023-07-19T16:48:07.709Z,965.46
2023-07-19T16:49:07.708Z,965.50
2023-07-19T16:50:07.674Z,965.53
2023-07-19T16:51:07.644Z,965.50
2023-07-19T16:52:07.623Z,965.48
2023-07-19T16:53:07.607Z,965.43
2023-07-19T16:54:07.581Z,965.45
2023-07-19T16:55:07.563Z,965.44
2023-07-19T16:56:07.542Z,965.47
2023-07-19T16:57:07.517Z,965.45
2023-07-19T16:58:07.515Z,965.49
2023-07-19T16:59:07.477Z,965.50
2023-07-19T17:00:17.164Z,965.47
2023-07-19T17:01:07.514Z,965.49
2023-07-19T17:02:07.420Z,965.48
2023-07-19T17:03:07.453Z,965.49
2023-07-19T17:04:07.439Z,965.44
2023-07-19T17:05:07.351Z,965.43
2023-07-19T17:06:07.339Z,965.42
2023-07-19T17:07:07.309Z,965.42
2023-07-19T17:08:07.295Z,965.41
2023-07-19T17:09:07.267Z,965.40
2023-07-19T17:10:07.247Z,965.42
2023-07-19T17:11:07.228Z,965.44
2023-07-19T17:12:07.206Z,965.43
2023-07-19T17:13:07.179Z,965.49
2023-07-19T17:14:07.173Z,965.49
2023-07-19T17:15:07.134Z,965.47
2023-07-19T17:16:07.119Z,965.46
2023-07-19T17:17:12.528Z,965.47
2023-07-19T17:18:07.198Z,965.46
2023-07-19T17:19:15.753Z,965.46
2023-07-19T17:20:07.044Z,965.50
2023-07-19T17:21:07.003Z,965.48
2023-07-19T17:22:07.006Z,965.47
2023-07-19T17:23:07.107Z,965.47
2023-07-19T17:24:06.944Z,965.47
2023-07-19T17:25:06.928Z,965.49
2023-07-19T17:26:06.916Z,965.52
2023-07-19T17:27:06.881Z,965.55
2023-07-19T17:28:06.878Z,965.51
2023-07-19T17:29:06.853Z,965.51
2023-07-19T17:30:06.816Z,965.50
2023-07-19T17:31:06.811Z,965.52
2023-07-19T17:32:06.780Z,965.59
2023-07-19T17:33:06.775Z,965.63
2023-07-19T17:34:06.802Z,965.66
2023-07-19T17:35:06.709Z,965.66
2023-07-19T17:36:06.691Z,965.64
2023-07-19T17:37:06.672Z,965.59
2023-07-19T17:38:06.670Z,965.62
2023-07-19T17:39:06.623Z,965.57
2023-07-19T17:40:06.609Z,965.56
2023-07-19T17:41:06.582Z,965.58
2023-07-19T17:42:06.578Z,965.58
2023-07-19T17:43:06.581Z,965.60
2023-07-19T17:44:06.537Z,965.62
2023-07-19T17:45:06.499Z,965.61
2023-07-19T17:46:06.525Z,965.67
2023-07-19T17:47:06.460Z,965.64
2023-07-19T17:48:06.455Z,965.69
2023-07-19T17:49:06.419Z,965.65
2023-07-19T17:50:06.395Z,965.69
2023-07-19T17:51:06.374Z,965.64
2023-07-19T17:52:06.357Z,965.65
2023-07-19T17:53:06.326Z,965.61
2023-07-19T17:54:06.348Z,965.56
2023-07-19T17:55:06.287Z,965.57
2023-07-19T17:56:06.269Z,965.61
2023-07-19T17:57:06.242Z,965.56
2023-07-19T17:58:06.219Z,965.60
2023-07-19T17:59:06.197Z,965.67
2023-07-19T18:00:06.178Z,965.66
2023-07-19T18:01:06.150Z,965.66
2023-07-19T18:02:06.166Z,965.63
2023-07-19T18:03:06.205Z,965.65
2023-07-19T18:04:06.142Z,965.62
2023-07-19T18:05:06.070Z,965.62
2023-07-19T18:06:06.052Z,965.59
2023-07-19T18:07:06.028Z,965.61
2023-07-19T18:08:20.432Z,965.59
2023-07-19T18:09:05.983Z,965.56
2023-07-19T18:10:05.964Z,965.59
2023-07-19T18:11:05.944Z,965.63
2023-07-19T18:12:05.925Z,965.64
2023-07-19T18:13:05.898Z,965.68
2023-07-19T18:14:05.880Z,965.69
2023-07-19T18:15:05.864Z,965.71
2023-07-19T18:16:05.836Z,965.69
2023-07-19T18:17:06.089Z,965.70
2023-07-19T18:18:05.824Z,965.68
2023-07-19T18:19:05.777Z,965.72
2023-07-19T18:20:05.762Z,965.69
2023-07-19T18:21:05.734Z,965.71
2023-07-19T18:22:05.706Z,965.71
2023-07-19T18:23:05.734Z,965.69
2023-07-19T18:24:05.679Z,965.71
2023-07-19T18:25:05.641Z,965.67
2023-07-19T18:26:05.627Z,965.68
2023-07-19T18:27:05.622Z,965.66
2023-07-19T18:28:05.584Z,965.63
2023-07-19T18:29:05.554Z,965.63
2023-07-19T18:30:05.546Z,965.65
2023-07-19T18:31:05.574Z,965.74
2023-07-19T18:32:05.505Z,965.69
2023-07-19T18:33:05.527Z,965.68
2023-07-19T18:34:05.460Z,965.66
2023-07-19T18:35:05.432Z,965.66
2023-07-19T18:36:05.433Z,965.66
2023-07-19T18:37:05.409Z,965.70
2023-07-19T18:38:05.363Z,965.74
2023-07-19T18:39:05.357Z,965.78
2023-07-19T18:40:05.323Z,965.80
2023-07-19T18:41:05.307Z,965.81
2023-07-19T18:42:05.285Z,965.81
2023-07-19T18:43:05.258Z,965.82
2023-07-19T18:44:05.239Z,965.87
2023-07-19T18:45:05.221Z,965.81
2023-07-19T18:46:05.251Z,965.84
2023-07-19T18:47:05.174Z,965.86
2023-07-19T18:48:05.204Z,965.86
2023-07-19T18:49:05.150Z,965.85
2023-07-19T18:50:05.125Z,965.84
2023-07-19T18:51:05.098Z,965.83
2023-07-19T18:52:05.067Z,965.82
2023-07-19T18:53:05.065Z,965.81
2023-07-19T18:54:05.028Z,965.82
2023-07-19T18:55:05.005Z,965.81
2023-07-19T18:56:05.004Z,965.82
2023-07-19T18:57:04.956Z,965.86
2023-07-19T18:58:04.943Z,965.86
2023-07-19T18:59:04.916Z,965.86
2023-07-19T19:00:04.889Z,965.88
2023-07-19T19:01:04.927Z,965.87
2023-07-19T19:02:04.860Z,965.89
2023-07-19T19:03:04.930Z,965.88
2023-07-19T19:04:04.844Z,965.88
2023-07-19T19:05:04.781Z,965.87
2023-07-19T19:06:04.769Z,965.91
2023-07-19T19:07:04.743Z,965.88
2023-07-19T19:08:04.723Z,965.92
2023-07-19T19:09:04.697Z,965.87
2023-07-19T19:10:04.670Z,965.93
2023-07-19T19:11:04.651Z,965.90
2023-07-19T19:12:04.680Z,965.88
2023-07-19T19:13:04.607Z,965.86
2023-07-19T19:14:04.590Z,965.85
2023-07-19T19:15:04.560Z,965.86
2023-07-19T19:16:04.541Z,965.93
2023-07-19T19:17:04.539Z,965.91
2023-07-19T19:18:04.539Z,965.92
2023-07-19T19:19:04.477Z,965.94
2023-07-19T19:20:04.463Z,965.94
2023-07-19T19:21:04.442Z,965.93
2023-07-19T19:22:04.411Z,966.00
2023-07-19T19:23:04.400Z,965.95
2023-07-19T19:24:04.375Z,965.96
2023-07-19T19:25:04.342Z,965.93
2023-07-19T19:26:04.334Z,965.95
2023-07-19T19:27:04.317Z,965.98
2023-07-19T19:28:04.280Z,965.92
2023-07-19T19:29:04.256Z,965.95
2023-07-19T19:30:04.239Z,965.89
2023-07-19T19:31:04.294Z,965.86
2023-07-19T19:32:04.195Z,965.86
2023-07-19T19:33:04.220Z,965.89
2023-07-19T19:34:04.149Z,965.88
2023-07-19T19:35:04.159Z,965.86
2023-07-19T19:36:04.103Z,965.88
2023-07-19T19:37:04.085Z,965.85
2023-07-19T19:38:04.060Z,965.89
2023-07-19T19:39:12.118Z,965.90
2023-07-19T19:40:04.027Z,965.92
2023-07-19T19:41:04.002Z,965.98
2023-07-19T19:42:03.973Z,965.97
2023-07-19T19:43:03.961Z,965.95
2023-07-19T19:44:03.926Z,965.97
2023-07-19T19:45:03.908Z,965.98
2023-07-19T19:46:03.920Z,965.97
2023-07-19T19:47:03.860Z,965.98
2023-07-19T19:48:03.992Z,966.01
2023-07-19T19:49:03.832Z,966.01
2023-07-19T19:50:03.797Z,965.99
2023-07-19T19:51:03.768Z,965.95
2023-07-19T19:52:06.716Z,965.98
2023-07-19T19:53:10.325Z,965.98
2023-07-19T19:54:03.725Z,966.04
2023-07-19T19:55:03.682Z,966.02
2023-07-19T19:58:03.623Z,966.07
2023-07-19T19:59:03.599Z,966.05
2023-07-19T20:00:03.566Z,966.06
2023-07-19T20:01:08.605Z,966.09
2023-07-19T20:04:05.035Z,966.09
2023-07-19T20:05:03.520Z,966.09
2023-07-19T20:06:03.485Z,966.10
2023-07-19T20:08:03.821Z,966.07
2023-07-19T20:09:16.695Z,966.07
